Time;durP1;ratioP1;P1;durP2;ratioP2;P2;SDS_P1;SDS_P2;PMS_P1;PMS_P2;Temp;Humidity;BMP_temperature;BMP_pressure;BME280_temperature;BME280_humidity;BME280_pressure;Samples;Min_cycle;Max_cycle;Signal;HPM_P1;HPM_P2
2023/05/03 00:01:57;;;;;;;1.30;1.30;;;13.40;99.90;;;;;;5016839;28;20247;-71
2023/05/03 00:04:25;;;;;;;1.30;1.30;;;13.40;99.90;;;;;;5018252;28;20232;-68
2023/05/03 00:06:52;;;;;;;1.10;1.10;;;13.40;99.90;;;;;;5013011;28;20249;-70
2023/05/03 00:09:21;;;;;;;1.50;1.50;;;13.40;99.90;;;;;;5017379;28;20289;-68
2023/05/03 00:11:47;;;;;;;1.50;1.40;;;13.30;99.90;;;;;;5014428;28;20286;-68
2023/05/03 00:14:14;;;;;;;1.27;1.27;;;13.30;99.90;;;;;;5016387;28;20219;-68
2023/05/03 00:16:43;;;;;;;1.40;1.40;;;13.30;99.90;;;;;;5015719;28;20207;-68
2023/05/03 00:19:10;;;;;;;2.00;1.30;;;13.30;99.90;;;;;;5019358;28;20621;-67
2023/05/03 00:21:38;;;;;;;1.40;1.40;;;13.20;99.90;;;;;;5017967;28;20732;-69
2023/05/03 00:24:05;;;;;;;1.30;1.30;;;13.20;99.90;;;;;;5021420;28;21324;-72
2023/05/03 00:26:32;;;;;;;1.83;1.33;;;13.10;99.90;;;;;;5017831;28;20238;-70
2023/05/03 00:29:00;;;;;;;2.10;1.25;;;13.10;99.90;;;;;;5016919;28;20210;-67
2023/05/03 00:31:27;;;;;;;1.30;1.30;;;13.10;99.90;;;;;;5018995;28;20234;-68
2023/05/03 00:33:54;;;;;;;1.48;1.48;;;13.10;99.90;;;;;;5018654;28;20242;-68
2023/05/03 00:36:21;;;;;;;1.60;1.50;;;13.10;99.90;;;;;;5026015;28;20243;-67
2023/05/03 00:38:49;;;;;;;1.40;1.38;;;13.10;99.90;;;;;;5022467;28;20982;-71
2023/05/03 00:41:17;;;;;;;1.40;1.40;;;13.00;99.90;;;;;;5023525;28;20219;-68
2023/05/03 00:43:43;;;;;;;1.25;1.25;;;13.00;99.90;;;;;;5017954;28;20222;-69
2023/05/03 00:46:11;;;;;;;1.63;1.52;;;12.90;99.90;;;;;;5020771;28;20273;-67
2023/05/03 00:48:38;;;;;;;1.63;1.52;;;12.90;99.90;;;;;;5019833;28;20337;-67
2023/05/03 00:51:06;;;;;;;1.42;1.30;;;12.90;99.90;;;;;;5022764;28;20710;-67
2023/05/03 00:53:33;;;;;;;1.10;1.10;;;12.90;99.90;;;;;;5024695;28;20872;-67
2023/05/03 00:56:04;;;;;;;1.23;1.23;;;12.90;99.90;;;;;;5021217;28;20211;-67
2023/05/03 00:58:34;;;;;;;1.50;1.50;;;12.90;99.90;;;;;;5019345;28;20212;-70
2023/05/03 01:01:02;;;;;;;1.30;1.30;;;12.80;99.90;;;;;;5022817;28;20295;-71
2023/05/03 01:03:30;;;;;;;1.35;1.35;;;12.80;99.90;;;;;;5021185;28;20199;-68
2023/05/03 01:06:08;;;;;;;1.35;1.35;;;12.70;99.90;;;;;;5019958;28;20200;-67
2023/05/03 01:08:42;;;;;;;1.20;1.20;;;12.70;99.90;;;;;;5026348;28;20199;-67
2023/05/03 01:11:19;;;;;;;1.10;1.10;;;12.70;99.90;;;;;;5018887;28;20223;-70
2023/05/03 01:13:56;;;;;;;1.30;1.30;;;12.70;99.90;;;;;;5024470;28;20849;-67
2023/05/03 01:16:31;;;;;;;1.52;1.35;;;12.70;99.90;;;;;;5027659;28;20215;-67
2023/05/03 01:19:04;;;;;;;1.15;1.15;;;12.70;99.90;;;;;;5024641;28;20414;-70
2023/05/03 01:21:32;;;;;;;1.40;1.40;;;12.70;99.90;;;;;;5023141;28;20219;-68
2023/05/03 01:24:04;;;;;;;1.20;1.20;;;12.70;99.90;;;;;;5026088;28;20195;-69
2023/05/03 01:26:33;;;;;;;1.65;1.60;;;12.60;99.90;;;;;;5020685;28;20202;-68
2023/05/03 01:29:00;;;;;;;1.65;1.55;;;12.60;99.90;;;;;;5024083;28;20223;-68
2023/05/03 01:31:32;;;;;;;1.23;1.23;;;12.60;99.90;;;;;;5019137;28;20219;-67
2023/05/03 01:34:14;;;;;;;1.38;1.30;;;12.60;99.90;;;;;;5018577;28;20235;-67
2023/05/03 01:36:44;;;;;;;1.45;1.40;;;12.50;99.90;;;;;;5019452;28;20223;-68
2023/05/03 01:39:16;;;;;;;1.45;1.45;;;12.50;99.90;;;;;;5019722;28;20239;-71
2023/05/03 01:41:45;;;;;;;1.30;1.30;;;12.40;99.90;;;;;;5018124;28;20218;-67
2023/05/03 01:44:13;;;;;;;1.25;1.25;;;12.40;99.90;;;;;;5018752;28;20203;-68
2023/05/03 01:46:44;;;;;;;1.30;1.30;;;12.40;99.90;;;;;;5017434;28;20331;-69
2023/05/03 01:49:11;;;;;;;1.85;1.52;;;12.50;99.90;;;;;;5020211;28;21914;-68
2023/05/03 01:51:38;;;;;;;1.48;1.48;;;12.50;99.90;;;;;;5018351;28;20855;-67
2023/05/03 01:54:06;;;;;;;1.40;1.40;;;12.50;99.90;;;;;;5019836;28;20231;-67
2023/05/03 01:56:35;;;;;;;1.30;1.30;;;12.50;99.90;;;;;;5017562;28;20702;-69
2023/05/03 01:59:04;;;;;;;1.85;1.30;;;12.40;99.90;;;;;;5019627;28;20203;-67
2023/05/03 02:01:31;;;;;;;1.00;1.00;;;12.30;99.90;;;;;;5018053;28;20223;-69
2023/05/03 02:03:58;;;;;;;1.40;1.40;;;12.30;99.90;;;;;;5017409;28;20291;-67
2023/05/03 02:06:25;;;;;;;1.40;1.40;;;12.20;99.90;;;;;;5019559;28;20262;-67
2023/05/03 02:08:52;;;;;;;1.40;1.40;;;12.20;99.90;;;;;;5016858;28;20672;-67
2023/05/03 02:11:20;;;;;;;1.40;1.35;;;12.10;99.90;;;;;;5016607;28;20720;-68
2023/05/03 02:13:48;;;;;;;1.20;1.20;;;12.10;99.90;;;;;;5025891;28;20208;-66
2023/05/03 02:16:17;;;;;;;1.50;1.40;;;12.10;99.90;;;;;;5018389;28;20277;-67
2023/05/03 02:18:44;;;;;;;1.30;1.30;;;12.10;99.90;;;;;;5018789;28;20224;-67
2023/05/03 02:21:11;;;;;;;1.60;1.60;;;12.00;99.90;;;;;;5018597;28;20313;-67
2023/05/03 02:23:39;;;;;;;1.60;1.50;;;12.00;99.90;;;;;;5015396;28;20327;-67
2023/05/03 02:26:06;;;;;;;1.38;1.38;;;11.90;99.90;;;;;;5020401;28;20196;-70
2023/05/03 02:28:35;;;;;;;1.60;1.60;;;11.90;99.90;;;;;;5019246;28;20215;-69
2023/05/03 02:31:04;;;;;;;1.40;1.30;;;11.70;99.90;;;;;;5015365;28;20690;-68
2023/05/03 02:33:33;;;;;;;1.67;1.58;;;11.70;99.90;;;;;;5019252;28;20821;-67
2023/05/03 02:36:00;;;;;;;1.30;1.30;;;11.70;99.90;;;;;;5020319;28;20787;-67
2023/05/03 02:38:27;;;;;;;1.40;1.40;;;11.70;99.90;;;;;;5019539;28;20481;-67
2023/05/03 02:40:54;;;;;;;1.48;1.40;;;11.70;99.90;;;;;;5016688;28;20227;-71
2023/05/03 02:43:21;;;;;;;1.58;1.58;;;11.80;99.90;;;;;;5021148;28;20232;-71
2023/05/03 02:45:48;;;;;;;1.27;1.27;;;11.80;99.90;;;;;;5021089;28;20200;-70
2023/05/03 02:48:15;;;;;;;1.42;1.42;;;11.80;99.90;;;;;;5016326;28;20208;-71
2023/05/03 02:50:43;;;;;;;1.40;1.40;;;11.80;99.90;;;;;;5019568;28;20195;-71
2023/05/03 02:53:10;;;;;;;1.30;1.30;;;11.70;99.90;;;;;;5017706;28;20203;-69
2023/05/03 02:55:37;;;;;;;1.35;1.35;;;11.70;99.90;;;;;;5018195;28;20274;-68
2023/05/03 02:58:04;;;;;;;1.45;1.45;;;11.60;99.90;;;;;;5015642;28;20242;-66
2023/05/03 03:00:31;;;;;;;1.40;1.40;;;11.60;99.90;;;;;;5022033;28;20849;-67
2023/05/03 03:02:58;;;;;;;1.60;1.60;;;11.60;99.90;;;;;;5015981;28;20267;-71
2023/05/03 03:05:25;;;;;;;1.33;1.33;;;11.60;99.90;;;;;;5017302;28;20210;-67
2023/05/03 03:07:54;;;;;;;1.50;1.40;;;11.60;99.90;;;;;;5018054;28;20199;-68
2023/05/03 03:10:21;;;;;;;1.35;1.35;;;11.60;99.90;;;;;;5016867;28;20254;-68
2023/05/03 03:12:48;;;;;;;1.67;1.60;;;11.60;99.90;;;;;;5021006;28;20258;-66
2023/05/03 03:15:15;;;;;;;1.48;1.38;;;11.60;99.90;;;;;;5013467;28;20613;-67
2023/05/03 03:17:41;;;;;;;1.77;1.67;;;11.60;99.90;;;;;;5018882;28;20754;-72
2023/05/03 03:20:10;;;;;;;1.33;1.33;;;11.60;99.90;;;;;;5014384;28;20199;-68
2023/05/03 03:22:38;;;;;;;1.40;1.40;;;11.60;99.90;;;;;;5016289;28;20476;-68
2023/05/03 03:25:08;;;;;;;1.60;1.60;;;11.60;99.90;;;;;;5016019;28;20617;-69
2023/05/03 03:27:35;;;;;;;1.30;1.30;;;11.60;99.90;;;;;;5016335;28;20203;-69
2023/05/03 03:30:02;;;;;;;1.58;1.58;;;11.60;99.90;;;;;;5016944;28;20239;-68
2023/05/03 03:32:29;;;;;;;1.40;1.40;;;11.60;99.90;;;;;;5013485;28;20235;-70
2023/05/03 03:34:56;;;;;;;1.63;1.52;;;11.60;99.90;;;;;;5017037;28;20667;-69
2023/05/03 03:37:23;;;;;;;1.50;1.40;;;11.60;99.90;;;;;;5017389;28;20303;-67
2023/05/03 03:39:50;;;;;;;1.58;1.58;;;11.60;99.90;;;;;;5010133;28;20736;-67
2023/05/03 03:42:19;;;;;;;1.85;1.75;;;11.60;99.90;;;;;;5010803;28;20224;-67
2023/05/03 03:44:46;;;;;;;1.63;1.52;;;11.50;99.90;;;;;;5014835;28;20236;-69
2023/05/03 03:47:13;;;;;;;1.85;1.75;;;11.50;99.90;;;;;;5013729;28;20203;-70
2023/05/03 03:49:40;;;;;;;2.05;1.70;;;11.40;99.90;;;;;;5017856;28;20880;-70
2023/05/03 03:52:07;;;;;;;1.70;1.70;;;11.30;99.90;;;;;;5014382;28;20286;-66
2023/05/03 03:54:34;;;;;;;1.90;1.80;;;11.30;99.90;;;;;;5017749;28;20269;-67
2023/05/03 03:57:01;;;;;;;1.48;1.48;;;11.30;99.90;;;;;;5014789;28;20322;-70
2023/05/03 03:59:30;;;;;;;1.85;1.75;;;11.30;99.90;;;;;;5014167;28;20212;-67
2023/05/03 04:01:57;;;;;;;1.70;1.60;;;11.40;99.90;;;;;;5016328;28;20314;-69
2023/05/03 04:04:25;;;;;;;1.83;1.73;;;11.40;99.90;;;;;;5014218;28;20277;-67
2023/05/03 04:06:52;;;;;;;1.67;1.58;;;11.30;99.90;;;;;;5016169;28;20203;-66
2023/05/03 04:09:20;;;;;;;1.50;1.50;;;11.30;99.90;;;;;;5017409;28;20200;-68
2023/05/03 04:11:47;;;;;;;1.60;1.60;;;11.20;99.90;;;;;;5013341;28;20230;-70
2023/05/03 04:14:14;;;;;;;1.75;1.65;;;11.20;99.90;;;;;;5019389;28;20586;-70
2023/05/03 04:16:42;;;;;;;1.67;1.60;;;11.20;99.90;;;;;;5017295;28;20256;-67
2023/05/03 04:19:09;;;;;;;1.55;1.50;;;11.20;99.90;;;;;;5012825;28;20317;-70
2023/05/03 04:21:36;;;;;;;1.90;1.80;;;11.30;99.90;;;;;;5013401;28;20223;-67
2023/05/03 04:24:04;;;;;;;1.60;1.58;;;11.30;99.90;;;;;;5014952;28;20223;-67
2023/05/03 04:26:31;;;;;;;1.70;1.60;;;11.20;99.90;;;;;;5013593;28;20204;-71
2023/05/03 04:28:58;;;;;;;1.80;1.70;;;11.20;99.90;;;;;;5015699;28;20200;-67
2023/05/03 04:31:27;;;;;;;1.80;1.70;;;11.20;99.90;;;;;;5015527;28;20281;-68
2023/05/03 04:33:55;;;;;;;1.83;1.73;;;11.20;99.90;;;;;;5015479;28;20241;-71
2023/05/03 04:36:24;;;;;;;1.67;1.58;;;11.20;99.90;;;;;;5016029;28;20223;-67
2023/05/03 04:38:51;;;;;;;1.80;1.70;;;11.20;99.90;;;;;;5013314;28;20699;-67
2023/05/03 04:41:18;;;;;;;1.50;1.50;;;11.30;99.90;;;;;;5019956;28;20231;-67
2023/05/03 04:43:45;;;;;;;1.73;1.60;;;11.50;99.90;;;;;;5019875;28;20207;-69
2023/05/03 04:46:12;;;;;;;1.50;1.50;;;11.70;99.90;;;;;;5013691;28;20227;-69
2023/05/03 04:48:41;;;;;;;1.90;1.80;;;11.80;99.90;;;;;;5016799;28;20864;-68
2023/05/03 04:51:09;;;;;;;1.85;1.75;;;12.00;99.90;;;;;;5015849;28;20219;-66
2023/05/03 04:53:36;;;;;;;1.88;1.77;;;12.20;99.90;;;;;;5014905;28;21026;-67
2023/05/03 04:56:03;;;;;;;1.63;1.58;;;12.40;99.90;;;;;;5013841;28;20285;-71
2023/05/03 04:58:30;;;;;;;1.55;1.45;;;12.50;99.90;;;;;;5017753;28;20242;-71
2023/05/03 05:00:57;;;;;;;1.85;1.75;;;12.70;99.90;;;;;;5015021;28;20208;-70
2023/05/03 05:03:24;;;;;;;1.63;1.52;;;12.80;99.90;;;;;;5014151;28;20735;-67
2023/05/03 05:05:51;;;;;;;1.77;1.67;;;13.00;99.90;;;;;;5016441;28;20755;-68
2023/05/03 05:08:20;;;;;;;1.67;1.58;;;13.00;99.90;;;;;;5014608;28;20746;-69
2023/05/03 05:10:47;;;;;;;1.90;1.80;;;12.90;99.90;;;;;;5018101;28;20226;-70
2023/05/03 05:13:14;;;;;;;1.80;1.70;;;13.10;99.90;;;;;;5017053;28;20195;-68
2023/05/03 05:15:41;;;;;;;1.83;1.73;;;13.40;99.90;;;;;;5021899;28;20265;-67
2023/05/03 05:18:09;;;;;;;1.70;1.60;;;13.70;99.90;;;;;;5020153;28;20223;-68
2023/05/03 05:20:36;;;;;;;1.80;1.70;;;13.80;99.90;;;;;;5021076;28;20672;-67
2023/05/03 05:23:03;;;;;;;1.55;1.50;;;14.00;99.90;;;;;;5016981;28;20247;-68
2023/05/03 05:25:31;;;;;;;1.42;1.40;;;14.20;99.90;;;;;;5023608;28;20243;-67
2023/05/03 05:27:58;;;;;;;2.65;2.05;;;14.50;99.90;;;;;;5018689;28;20285;-68
2023/05/03 05:30:25;;;;;;;1.85;1.75;;;14.70;99.90;;;;;;5015925;28;20231;-67
2023/05/03 05:32:52;;;;;;;2.20;2.05;;;14.80;99.90;;;;;;5014833;28;20285;-67
2023/05/03 05:35:21;;;;;;;1.75;1.65;;;15.00;99.90;;;;;;5015103;28;20804;-71
2023/05/03 05:37:48;;;;;;;1.67;1.58;;;15.30;99.90;;;;;;5014603;28;20951;-71
2023/05/03 05:40:15;;;;;;;2.25;2.15;;;15.40;99.90;;;;;;5021647;28;20231;-66
2023/05/03 05:47:54;;;;;;;2.42;2.22;;;15.40;99.90;;;;;;1425371;26;20225;-67
2023/05/03 05:50:21;;;;;;;2.13;2.03;;;15.50;99.90;;;;;;5040584;28;20292;-70
2023/05/03 05:52:49;;;;;;;1.80;1.70;;;15.50;99.90;;;;;;5031814;28;20261;-67
2023/05/03 05:55:16;;;;;;;2.10;2.00;;;15.70;99.90;;;;;;5023921;28;20235;-67
2023/05/03 05:57:43;;;;;;;2.30;2.20;;;15.70;99.90;;;;;;5029162;28;20230;-67
2023/05/03 06:00:13;;;;;;;2.28;1.48;;;15.60;99.90;;;;;;5028694;28;20270;-67
2023/05/03 06:02:40;;;;;;;1.65;1.55;;;15.50;99.90;;;;;;5021796;28;20246;-68
2023/05/03 06:05:10;;;;;;;1.67;1.58;;;15.50;99.90;;;;;;5026863;28;20722;-67
2023/05/03 06:07:37;;;;;;;1.83;1.70;;;15.60;99.90;;;;;;5027335;28;20257;-67
2023/05/03 06:10:04;;;;;;;1.65;1.58;;;15.70;99.90;;;;;;5015956;28;20192;-67
2023/05/03 06:12:31;;;;;;;2.00;1.90;;;15.80;99.90;;;;;;5025052;28;20297;-67
2023/05/03 06:14:59;;;;;;;1.80;1.70;;;15.80;99.90;;;;;;5033608;28;20912;-66
2023/05/03 06:17:26;;;;;;;1.98;1.85;;;15.90;99.90;;;;;;5020140;28;20619;-71
2023/05/03 06:19:52;;;;;;;1.70;1.60;;;16.00;99.90;;;;;;5029623;28;20575;-66
2023/05/03 06:22:21;;;;;;;3.58;1.60;;;16.10;99.90;;;;;;5023441;28;20250;-69
2023/05/03 06:24:48;;;;;;;1.70;1.60;;;16.20;99.90;;;;;;5022481;28;20195;-69
2023/05/03 06:27:15;;;;;;;1.75;1.65;;;16.50;99.90;;;;;;5027651;28;20199;-69
2023/05/03 06:29:43;;;;;;;1.52;1.42;;;16.70;99.90;;;;;;5026093;28;20204;-69
2023/05/03 06:32:10;;;;;;;2.35;1.50;;;16.80;99.90;;;;;;5022185;28;20211;-70
2023/05/03 06:34:37;;;;;;;3.28;2.10;;;17.00;99.90;;;;;;5020614;28;20253;-67
2023/05/03 06:37:04;;;;;;;1.60;1.50;;;17.10;99.90;;;;;;5026562;28;20219;-70
2023/05/03 06:39:32;;;;;;;1.65;1.55;;;17.10;99.90;;;;;;5027395;28;20961;-69
2023/05/03 06:41:59;;;;;;;1.80;1.70;;;17.30;99.90;;;;;;5022385;28;20223;-68
2023/05/03 06:44:26;;;;;;;1.73;1.63;;;17.40;99.90;;;;;;5019105;28;20235;-72
2023/05/03 06:46:53;;;;;;;1.60;1.50;;;17.10;99.90;;;;;;5015594;28;20204;-68
2023/05/03 06:49:20;;;;;;;1.75;1.65;;;17.00;99.90;;;;;;5014558;28;20735;-72
2023/05/03 06:51:47;;;;;;;1.33;1.25;;;16.90;99.90;;;;;;5010969;28;20219;-68
2023/05/03 06:54:14;;;;;;;1.80;1.50;;;17.00;99.90;;;;;;5014494;28;20724;-70
2023/05/03 06:56:43;;;;;;;1.67;1.30;;;17.20;99.90;;;;;;5013162;28;20266;-70
2023/05/03 06:59:10;;;;;;;1.73;1.63;;;17.40;99.90;;;;;;5019583;28;20293;-68
2023/05/03 07:01:37;;;;;;;1.90;1.80;;;17.50;99.90;;;;;;5013125;28;20226;-71
2023/05/03 07:04:04;;;;;;;1.50;1.40;;;17.80;99.90;;;;;;5019691;28;20763;-71
2023/05/03 07:06:31;;;;;;;1.63;1.52;;;18.00;99.90;;;;;;5021440;28;20250;-69
2023/05/03 07:08:58;;;;;;;2.22;1.50;;;18.10;99.90;;;;;;5022857;28;20302;-69
2023/05/03 07:11:25;;;;;;;1.50;1.40;;;18.00;99.90;;;;;;5021848;28;20781;-74
2023/05/03 07:13:54;;;;;;;2.00;1.67;;;18.10;99.90;;;;;;5028672;28;20664;-69
2023/05/03 07:16:21;;;;;;;1.70;1.60;;;18.10;99.90;;;;;;5019679;28;20781;-70
2023/05/03 07:18:49;;;;;;;1.70;1.60;;;18.20;99.90;;;;;;5017216;28;20299;-70
2023/05/03 07:21:16;;;;;;;1.70;1.60;;;18.00;99.90;;;;;;5013343;28;20324;-67
2023/05/03 07:23:44;;;;;;;1.70;1.48;;;18.10;99.90;;;;;;5011800;28;20231;-68
2023/05/03 07:26:11;;;;;;;1.70;1.60;;;18.30;99.90;;;;;;5010582;28;20254;-67
2023/05/03 07:28:38;;;;;;;1.30;1.20;;;18.40;99.90;;;;;;5011653;28;20249;-71
2023/05/03 07:31:07;;;;;;;1.70;1.60;;;18.40;99.90;;;;;;5011314;28;20247;-73
2023/05/03 07:33:36;;;;;;;1.83;1.73;;;18.50;99.90;;;;;;5017110;28;20932;-67
2023/05/03 07:36:03;;;;;;;2.05;1.50;;;18.30;99.90;;;;;;5015273;28;20236;-69
2023/05/03 07:38:29;;;;;;;1.45;1.35;;;18.40;99.90;;;;;;5020418;28;20231;-71
2023/05/03 07:40:56;;;;;;;1.70;1.60;;;18.40;99.90;;;;;;5021349;28;20247;-67
2023/05/03 07:43:23;;;;;;;1.60;1.50;;;18.20;99.90;;;;;;5012213;28;20287;-70
2023/05/03 07:45:50;;;;;;;1.63;1.52;;;18.20;99.90;;;;;;5019649;28;20224;-68
2023/05/03 07:48:18;;;;;;;1.73;1.30;;;18.20;99.90;;;;;;5016039;28;20203;-71
2023/05/03 07:50:45;;;;;;;1.52;1.42;;;18.30;99.90;;;;;;5015928;28;20206;-70
2023/05/03 07:53:12;;;;;;;1.70;1.48;;;18.40;99.90;;;;;;5011067;28;20289;-70
2023/05/03 07:55:40;;;;;;;1.40;1.30;;;18.50;99.90;;;;;;5014392;28;20264;-68
2023/05/03 07:58:07;;;;;;;1.60;1.50;;;18.50;99.90;;;;;;5018009;28;20206;-68
2023/05/03 08:00:34;;;;;;;1.38;1.38;;;18.60;99.90;;;;;;5012256;28;20196;-69
2023/05/03 08:03:03;;;;;;;1.48;1.38;;;18.60;99.90;;;;;;5013724;28;20314;-72
2023/05/03 08:05:31;;;;;;;1.45;1.38;;;18.70;99.90;;;;;;5012799;28;20586;-68
2023/05/03 08:07:58;;;;;;;1.25;1.25;;;18.70;99.90;;;;;;5009843;28;20198;-70
2023/05/03 08:10:25;;;;;;;1.63;1.52;;;18.80;99.90;;;;;;5017756;28;20249;-68
2023/05/03 08:12:52;;;;;;;1.40;1.40;;;18.90;99.90;;;;;;5014568;28;20306;-68
2023/05/03 08:15:19;;;;;;;1.48;1.38;;;19.20;99.90;;;;;;5018512;28;20763;-70
2023/05/03 08:17:46;;;;;;;1.60;1.50;;;19.40;99.90;;;;;;5015596;28;20306;-71
2023/05/03 08:20:14;;;;;;;1.33;1.33;;;19.30;99.90;;;;;;5021588;28;20211;-70
2023/05/03 08:22:45;;;;;;;1.08;1.08;;;19.30;99.90;;;;;;5017382;28;20276;-71
2023/05/03 08:25:12;;;;;;;1.48;1.38;;;19.50;99.90;;;;;;5011101;28;20211;-71
2023/05/03 08:27:39;;;;;;;1.30;1.20;;;19.80;99.90;;;;;;5020548;28;20220;-68
2023/05/03 08:30:07;;;;;;;1.50;1.40;;;20.10;99.90;;;;;;5013840;28;20207;-72
2023/05/03 08:32:34;;;;;;;1.23;1.10;;;20.20;99.90;;;;;;5012024;28;20227;-74
2023/05/03 08:35:05;;;;;;;1.27;1.20;;;20.30;99.90;;;;;;5024558;28;20646;-68
2023/05/03 08:37:38;;;;;;;1.17;1.17;;;20.40;99.90;;;;;;5027634;28;20211;-68
2023/05/03 08:40:09;;;;;;;1.63;1.50;;;20.60;99.90;;;;;;5022116;28;20205;-68
2023/05/03 08:42:40;;;;;;;1.30;1.27;;;20.50;99.90;;;;;;5020749;28;20254;-67
2023/05/03 08:45:11;;;;;;;1.05;1.02;;;20.50;99.90;;;;;;5020019;28;20238;-71
2023/05/03 08:47:40;;;;;;;1.55;1.45;;;20.30;99.90;;;;;;5023493;28;20225;-73
2023/05/03 08:50:08;;;;;;;1.20;1.20;;;20.50;99.90;;;;;;5025691;28;20282;-72
2023/05/03 09:00:18;;;;;;;1.10;1.10;;;20.80;99.90;;;;;;5018587;28;20857;-71
2023/05/03 09:02:45;;;;;;;1.40;1.30;;;20.80;99.90;;;;;;5004168;28;20233;-68
2023/05/03 09:05:34;;;;;;;1.40;1.30;;;20.90;99.90;;;;;;4999370;28;20235;-69
2023/05/03 09:08:02;;;;;;;1.30;1.20;;;21.30;99.90;;;;;;5005117;28;20205;-72
2023/05/03 09:10:29;;;;;;;1.23;1.13;;;21.60;99.90;;;;;;5011862;28;20212;-71
2023/05/03 09:12:59;;;;;;;3.30;1.33;;;21.90;99.90;;;;;;5007300;28;20227;-70
2023/05/03 09:15:29;;;;;;;1.92;1.40;;;21.80;99.90;;;;;;5001657;28;20263;-71
2023/05/03 09:18:14;;;;;;;1.60;1.50;;;21.70;99.90;;;;;;5000073;28;20216;-72
2023/05/03 09:20:49;;;;;;;1.50;1.40;;;21.40;99.90;;;;;;4999417;28;20207;-76
2023/05/03 09:23:17;;;;;;;1.33;1.27;;;21.50;99.90;;;;;;4999328;28;20205;-76
2023/05/03 09:25:46;;;;;;;1.33;1.23;;;21.60;99.90;;;;;;5001489;28;20212;-72
2023/05/03 09:28:14;;;;;;;2.83;1.50;;;21.50;99.90;;;;;;4996416;28;20246;-73
2023/05/03 09:30:42;;;;;;;1.90;1.20;;;21.50;99.90;;;;;;4997926;28;20192;-74
2023/05/03 09:33:10;;;;;;;1.70;1.20;;;21.60;99.90;;;;;;4999087;28;20768;-76
2023/05/03 09:35:37;;;;;;;1.05;1.02;;;21.80;99.90;;;;;;4997916;28;20216;-74
2023/05/03 09:38:04;;;;;;;1.98;1.40;;;22.00;99.90;;;;;;4999534;28;20310;-77
2023/05/03 09:40:31;;;;;;;1.70;1.40;;;22.00;99.90;;;;;;5001208;28;20204;-74
2023/05/03 09:43:09;;;;;;;1.30;1.20;;;22.30;99.90;;;;;;4999295;28;20225;-74
2023/05/03 09:45:36;;;;;;;1.48;1.23;;;22.40;99.90;;;;;;4998475;28;20278;-75
2023/05/03 09:48:07;;;;;;;1.23;1.10;;;22.50;99.90;;;;;;5003764;28;20263;-76
2023/05/03 09:50:36;;;;;;;1.45;1.10;;;22.50;99.90;;;;;;5006351;28;20208;-73
2023/05/03 09:53:04;;;;;;;1.33;1.10;;;22.50;99.90;;;;;;4994042;28;20223;-73
2023/05/03 09:55:33;;;;;;;1.75;1.00;;;22.60;99.90;;;;;;4996562;28;20631;-77
2023/05/03 09:58:05;;;;;;;1.42;1.33;;;22.70;99.90;;;;;;4993896;28;20639;-74
2023/05/03 10:00:37;;;;;;;1.13;1.10;;;22.60;99.90;;;;;;4999618;28;20232;-73
2023/05/03 10:03:09;;;;;;;1.20;1.20;;;22.70;99.90;;;;;;5000125;28;20231;-73
2023/05/03 10:05:43;;;;;;;1.20;1.10;;;22.90;99.90;;;;;;5003502;28;20199;-74
2023/05/03 10:08:12;;;;;;;1.30;1.30;;;22.90;99.90;;;;;;4998542;28;20229;-77
2023/05/03 10:10:42;;;;;;;1.15;1.13;;;22.90;99.90;;;;;;5000085;28;21004;-73
2023/05/03 10:13:09;;;;;;;1.13;1.02;;;22.80;99.90;;;;;;4997210;28;20279;-76
2023/05/03 10:15:37;;;;;;;0.98;0.98;;;22.60;99.90;;;;;;4997763;28;20305;-75
2023/05/03 10:18:08;;;;;;;1.25;1.10;;;22.60;99.90;;;;;;4994409;28;20314;-72
2023/05/03 10:20:40;;;;;;;1.38;1.27;;;22.70;99.90;;;;;;4991324;28;20208;-73
2023/05/03 10:23:13;;;;;;;1.85;1.15;;;22.80;99.90;;;;;;4995890;28;20216;-75
2023/05/03 10:26:06;;;;;;;1.23;1.13;;;23.00;99.90;;;;;;4997244;28;20216;-70
2023/05/03 10:28:33;;;;;;;0.90;0.90;;;23.00;99.90;;;;;;4993111;28;20196;-74
2023/05/03 10:31:00;;;;;;;2.10;1.77;;;23.20;99.90;;;;;;5000478;28;20223;-73
2023/05/03 10:33:33;;;;;;;1.88;1.25;;;23.40;99.90;;;;;;4992843;28;21099;-70
2023/05/03 10:36:05;;;;;;;1.20;1.20;;;23.50;99.90;;;;;;4994616;28;20819;-71
2023/05/03 10:38:32;;;;;;;1.00;1.00;;;23.40;99.90;;;;;;4996070;28;20236;-72
2023/05/03 10:43:44;;;;;;;1.58;1.10;;;23.00;99.90;;;;;;1474538;26;20218;-77
2023/05/03 10:46:35;;;;;;;1.00;1.00;;;22.90;99.90;;;;;;5005830;28;20208;-79
2023/05/03 10:49:23;;;;;;;0.95;0.95;;;22.80;99.90;;;;;;5004529;28;20201;-77
2023/05/03 10:51:50;;;;;;;0.93;0.93;;;23.00;99.90;;;;;;4993955;28;20811;-76
2023/05/03 10:54:18;;;;;;;1.48;1.15;;;23.10;99.90;;;;;;5008784;28;20192;-79
2023/05/03 10:56:52;;;;;;;1.10;1.10;;;23.20;99.90;;;;;;5005013;28;20228;-75
2023/05/03 10:59:19;;;;;;;2.40;1.15;;;23.00;99.90;;;;;;4998243;28;20217;-74
2023/05/03 11:01:49;;;;;;;1.00;1.00;;;23.00;99.90;;;;;;4994774;28;20224;-73
2023/05/03 11:04:28;;;;;;;0.98;0.98;;;23.10;99.90;;;;;;4997349;28;20338;-73
2023/05/03 11:06:57;;;;;;;0.90;0.90;;;23.40;99.90;;;;;;4996603;28;20693;-73
2023/05/03 11:09:31;;;;;;;1.08;0.95;;;23.90;99.90;;;;;;4994721;28;20216;-73
2023/05/03 11:11:59;;;;;;;0.98;0.98;;;24.00;99.90;;;;;;4994996;28;20234;-72
2023/05/03 11:14:26;;;;;;;1.35;1.10;;;24.20;99.90;;;;;;4992962;28;20291;-72
2023/05/03 11:16:56;;;;;;;0.98;0.98;;;24.20;99.90;;;;;;4989427;28;20197;-72
2023/05/03 11:19:24;;;;;;;1.05;0.90;;;24.10;99.90;;;;;;4993262;28;20255;-75
2023/05/03 11:21:53;;;;;;;0.95;0.95;;;24.20;99.90;;;;;;4990115;28;20239;-72
2023/05/03 11:24:20;;;;;;;1.23;0.90;;;24.20;99.90;;;;;;4996633;28;20675;-72
2023/05/03 11:26:47;;;;;;;0.93;0.93;;;24.40;99.90;;;;;;4995901;28;20200;-71
2023/05/03 11:29:15;;;;;;;0.82;0.82;;;24.20;99.90;;;;;;4995398;28;20258;-74
2023/05/03 11:31:43;;;;;;;1.38;0.90;;;24.20;99.90;;;;;;4989931;28;20238;-72
2023/05/03 11:34:10;;;;;;;0.90;0.90;;;24.20;99.90;;;;;;4992980;28;20191;-75
2023/05/03 11:36:40;;;;;;;1.33;0.90;;;24.20;99.90;;;;;;4995659;28;20908;-77
2023/05/03 11:39:08;;;;;;;1.15;0.95;;;24.30;99.90;;;;;;4993920;28;20244;-72
2023/05/03 11:41:36;;;;;;;0.80;0.80;;;24.40;99.90;;;;;;4991833;28;20310;-74
2023/05/03 11:44:03;;;;;;;2.25;0.90;;;24.40;99.90;;;;;;4989627;28;20290;-77
2023/05/03 11:46:35;;;;;;;0.88;0.85;;;24.40;99.90;;;;;;4991601;28;20240;-74
2023/05/03 11:49:02;;;;;;;0.80;0.80;;;24.50;99.40;;;;;;4986754;28;20197;-72
2023/05/03 11:51:30;;;;;;;0.85;0.85;;;24.50;99.00;;;;;;4990856;28;20656;-75
2023/05/03 11:54:02;;;;;;;0.77;0.77;;;24.80;99.10;;;;;;4992169;28;20281;-75
2023/05/03 11:56:30;;;;;;;0.70;0.70;;;25.20;99.90;;;;;;4992014;28;20239;-74
2023/05/03 11:58:58;;;;;;;0.63;0.63;;;25.60;99.90;;;;;;4993471;28;20217;-73
2023/05/03 12:09:15;;;;;;;0.70;0.70;;;26.10;99.90;;;;;;3147495;26;20208;-74
2023/05/03 12:22:22;;;;;;;0.70;0.70;;;25.70;96.60;;;;;;5007937;28;20219;-72
2023/05/03 12:24:50;;;;;;;0.80;0.80;;;25.80;96.30;;;;;;5016500;28;20286;-71
2023/05/03 12:27:17;;;;;;;0.70;0.70;;;25.70;95.00;;;;;;5010227;28;20207;-74
2023/05/03 12:29:44;;;;;;;0.70;0.70;;;25.50;94.50;;;;;;5010902;28;20219;-76
2023/05/03 12:32:12;;;;;;;0.80;0.80;;;25.20;94.10;;;;;;5014619;28;20227;-74
2023/05/03 12:34:39;;;;;;;1.05;0.95;;;25.10;93.80;;;;;;5009247;28;20200;-73
2023/05/03 12:37:08;;;;;;;0.70;0.70;;;25.20;94.40;;;;;;5011323;28;20286;-73
2023/05/03 12:39:35;;;;;;;0.80;0.80;;;25.20;94.70;;;;;;5018086;28;20223;-74
2023/05/03 12:42:04;;;;;;;0.60;0.60;;;25.30;93.20;;;;;;5014621;28;20252;-73
2023/05/03 12:44:31;;;;;;;0.75;0.75;;;25.20;92.80;;;;;;5015186;28;20680;-68
2023/05/03 12:46:58;;;;;;;0.70;0.70;;;25.40;93.50;;;;;;5013764;28;20281;-76
2023/05/03 12:49:25;;;;;;;0.70;0.70;;;25.50;93.10;;;;;;5016248;28;20200;-73
2023/05/03 12:51:54;;;;;;;0.80;0.80;;;25.40;92.50;;;;;;5011092;28;20237;-74
2023/05/03 12:54:21;;;;;;;0.65;0.65;;;25.00;92.60;;;;;;5009114;28;20409;-73
2023/05/03 12:56:48;;;;;;;0.77;0.77;;;24.50;92.20;;;;;;5007988;28;20303;-73
2023/05/03 12:59:16;;;;;;;0.75;0.70;;;24.20;93.40;;;;;;5010002;28;20219;-71
2023/05/03 13:01:43;;;;;;;0.70;0.70;;;23.80;93.10;;;;;;5010042;28;20318;-75
2023/05/03 13:04:10;;;;;;;1.17;0.70;;;23.70;93.60;;;;;;5009452;28;20203;-72
2023/05/03 13:06:37;;;;;;;0.70;0.70;;;23.60;93.30;;;;;;5009942;28;20211;-72
2023/05/03 13:09:05;;;;;;;0.70;0.70;;;23.50;92.70;;;;;;5008852;28;20632;-75
2023/05/03 13:11:33;;;;;;;0.70;0.70;;;23.30;93.80;;;;;;5008694;28;21222;-72
2023/05/03 13:14:00;;;;;;;0.60;0.60;;;23.20;94.20;;;;;;5012372;28;20285;-74
2023/05/03 13:16:31;;;;;;;0.60;0.60;;;23.10;94.60;;;;;;5013152;28;20676;-72
2023/05/03 13:18:58;;;;;;;1.73;0.80;;;23.40;95.10;;;;;;5013149;28;20300;-72
2023/05/03 13:21:26;;;;;;;0.70;0.70;;;23.50;96.30;;;;;;5013573;28;20259;-76
2023/05/03 13:23:55;;;;;;;0.60;0.60;;;23.50;96.00;;;;;;5019323;28;20204;-72
2023/05/03 13:26:22;;;;;;;1.60;0.80;;;23.60;94.90;;;;;;5017794;28;21002;-76
2023/05/03 13:28:55;;;;;;;0.90;0.75;;;24.10;93.70;;;;;;5016494;28;20287;-72